createdAt,value
2023-04-09T00:01:11.085Z,19202.16
2023-04-09T00:03:40.441Z,19189.97
2023-04-09T00:06:08.765Z,19173.69
2023-04-09T00:08:36.897Z,19171.66
2023-04-09T00:11:05.826Z,19185.88
2023-04-09T00:13:39.232Z,19189.97
2023-04-09T00:16:08.700Z,19198.09
2023-04-09T00:18:37.268Z,19171.66
2023-04-09T00:21:07.187Z,19149.31
2023-04-09T00:23:35.853Z,19161.50
2023-04-09T00:26:04.136Z,19185.88
2023-04-09T00:28:33.773Z,19206.22
2023-04-09T00:31:01.992Z,19204.19
2023-04-09T00:33:30.461Z,19139.16
2023-04-09T00:35:58.702Z,19169.63
2023-04-09T00:38:27.072Z,19202.16
2023-04-09T00:40:55.210Z,19163.53
2023-04-09T00:43:23.364Z,19153.38
2023-04-09T00:45:52.985Z,19163.53
2023-04-09T00:48:21.986Z,19139.16
2023-04-09T00:50:50.173Z,19147.28
2023-04-09T00:53:19.194Z,19157.44
2023-04-09T00:55:47.571Z,19118.84
2023-04-09T00:58:15.834Z,19116.81
2023-04-09T01:00:44.003Z,19131.03
2023-04-09T01:03:14.505Z,19141.19
2023-04-09T01:05:55.359Z,19214.34
2023-04-09T01:08:40.066Z,19179.78
2023-04-09T01:11:31.555Z,19122.91
2023-04-09T01:14:09.743Z,19120.88
2023-04-09T01:16:45.833Z,19169.63
2023-04-09T01:19:44.430Z,19159.47
2023-04-09T01:22:33.780Z,19094.44
2023-04-09T01:25:14.513Z,19143.22
2023-04-09T01:28:09.024Z,19131.03
2023-04-09T01:30:37.902Z,19133.06
2023-04-09T01:33:07.997Z,19090.38
2023-04-09T01:35:36.237Z,19059.91
2023-04-09T01:38:06.180Z,19098.50
2023-04-09T01:40:34.508Z,19110.72
2023-04-09T01:43:04.330Z,19100.53
2023-04-09T01:45:34.781Z,19106.66
2023-04-09T01:48:05.509Z,19061.94
2023-04-09T01:50:34.826Z,19082.25
2023-04-09T01:53:03.749Z,19108.69
2023-04-09T01:55:31.853Z,19110.72
2023-04-09T01:58:00.268Z,19114.78
2023-04-09T02:00:37.659Z,19106.66
2023-04-09T02:03:12.454Z,19116.81
2023-04-09T02:05:50.220Z,19147.28
2023-04-09T02:08:22.930Z,19139.16
2023-04-09T02:10:57.714Z,19153.38
2023-04-09T02:13:27.188Z,19102.56
2023-04-09T02:16:00.677Z,19082.25
2023-04-09T02:18:32.489Z,19088.34
2023-04-09T02:21:00.988Z,19104.59
2023-04-09T02:23:29.269Z,19078.19
2023-04-09T02:25:58.076Z,19078.19
2023-04-09T02:28:26.327Z,19092.41
2023-04-09T02:30:56.051Z,19086.31
2023-04-09T02:33:24.182Z,19118.84
2023-04-09T02:35:52.303Z,19078.19
2023-04-09T02:38:20.701Z,19092.41
2023-04-09T02:40:49.069Z,19137.13
2023-04-09T02:43:17.204Z,19084.28
2023-04-09T02:45:45.504Z,19053.81
2023-04-09T02:48:15.012Z,19104.59
2023-04-09T02:50:43.354Z,19078.19
2023-04-09T02:53:11.533Z,19078.19
2023-04-09T02:55:39.637Z,19088.34
2023-04-09T02:58:07.772Z,19035.53
2023-04-09T03:00:35.925Z,19070.06
2023-04-09T03:03:04.257Z,19094.44
2023-04-09T03:05:33.863Z,19055.84
2023-04-09T03:08:03.166Z,19082.25
2023-04-09T03:10:31.286Z,19066.00
2023-04-09T03:12:59.383Z,19059.91
2023-04-09T03:15:27.600Z,19039.59
2023-04-09T03:17:55.866Z,19078.19
2023-04-09T03:20:24.188Z,19041.63
2023-04-09T03:22:53.655Z,19100.53
2023-04-09T03:25:22.014Z,19070.06
2023-04-09T03:27:50.152Z,19029.44
2023-04-09T03:30:18.287Z,19033.50
2023-04-09T03:32:46.428Z,19055.84
2023-04-09T03:35:14.732Z,19039.59
2023-04-09T03:37:42.856Z,19043.66
2023-04-09T03:40:14.297Z,19043.66
2023-04-09T03:42:44.518Z,19068.03
2023-04-09T03:45:12.860Z,19076.16
2023-04-09T03:47:41.161Z,19070.06
2023-04-09T03:50:10.395Z,19080.22
2023-04-09T03:52:38.486Z,19098.50
2023-04-09T03:55:08.126Z,19096.47
2023-04-09T03:57:37.647Z,19072.09
2023-04-09T04:00:07.890Z,19070.06
2023-04-09T04:02:36.189Z,19070.06
2023-04-09T04:05:04.540Z,19074.13
2023-04-09T04:07:34.224Z,19021.31
2023-04-09T04:10:02.338Z,19047.72
2023-04-09T04:12:32.733Z,19074.13
2023-04-09T04:15:02.525Z,19025.38
2023-04-09T04:17:30.872Z,19051.78
2023-04-09T04:19:58.988Z,19029.44
2023-04-09T04:22:27.287Z,19066.00
2023-04-09T04:24:55.437Z,19084.28
2023-04-09T04:27:23.792Z,19045.69
2023-04-09T04:29:51.879Z,19041.63
2023-04-09T04:32:21.471Z,19051.78
2023-04-09T04:34:50.937Z,19043.66
2023-04-09T04:37:19.068Z,19023.34
2023-04-09T04:39:47.273Z,19068.03
2023-04-09T04:42:15.357Z,19029.44
2023-04-09T04:44:43.697Z,19043.66
2023-04-09T04:47:11.902Z,19066.00
2023-04-09T04:49:41.689Z,19049.75
2023-04-09T04:52:09.883Z,19047.72
2023-04-09T04:54:38.292Z,19098.50
2023-04-09T04:57:06.496Z,19059.91
2023-04-09T04:59:38.589Z,19086.31
2023-04-09T05:02:06.907Z,19049.75
2023-04-09T05:04:35.251Z,19041.63
2023-04-09T05:07:04.939Z,19047.72
2023-04-09T05:09:33.121Z,19080.22
2023-04-09T05:12:01.589Z,19078.19
2023-04-09T05:14:29.879Z,19078.19
2023-04-09T05:16:58.290Z,19102.56
2023-04-09T05:19:26.530Z,19102.56
2023-04-09T05:21:54.786Z,19086.31
2023-04-09T05:24:24.485Z,19100.53
2023-04-09T05:26:52.799Z,19143.22
2023-04-09T05:29:21.114Z,19102.56
2023-04-09T05:31:49.333Z,19173.69
2023-04-09T05:34:17.458Z,19161.50
2023-04-09T05:36:46.066Z,19165.56
2023-04-09T05:39:14.156Z,19163.53
2023-04-09T05:41:44.816Z,19179.78
2023-04-09T05:44:13.118Z,19196.06
2023-04-09T05:46:41.316Z,19218.41
2023-04-09T05:49:09.494Z,19220.44
2023-04-09T05:51:37.627Z,19234.66
2023-04-09T05:54:05.792Z,19250.91
2023-04-09T05:56:33.916Z,19248.88
2023-04-09T05:59:03.489Z,19263.09
2023-04-09T06:01:31.707Z,19277.34
2023-04-09T06:04:00.192Z,19244.81
2023-04-09T06:06:28.758Z,19273.28
2023-04-09T06:08:56.917Z,19240.75
2023-04-09T06:11:26.016Z,19303.75
2023-04-09T06:13:54.251Z,19240.75
2023-04-09T06:16:24.293Z,19283.44
2023-04-09T06:18:54.522Z,19271.25
2023-04-09T06:21:22.936Z,19315.94
2023-04-09T06:23:53.646Z,19334.22
2023-04-09T06:26:22.204Z,19313.91
2023-04-09T06:28:50.296Z,19309.84
2023-04-09T06:31:18.679Z,19328.13
2023-04-09T06:33:48.215Z,19311.88
2023-04-09T06:36:16.341Z,19313.91
2023-04-09T06:38:44.601Z,19340.31
2023-04-09T06:41:12.841Z,19368.78
2023-04-09T06:43:41.115Z,19340.31
2023-04-09T06:46:09.583Z,19354.56
2023-04-09T06:48:37.854Z,19360.66
2023-04-09T06:51:08.590Z,19326.09
2023-04-09T06:53:36.758Z,19309.84
2023-04-09T06:56:06.168Z,19338.28
2023-04-09T06:58:34.538Z,19366.75
2023-04-09T07:01:02.774Z,19366.75
2023-04-09T07:03:31.285Z,19399.25
2023-04-09T07:05:59.678Z,19393.16
2023-04-09T07:08:29.381Z,19407.38
2023-04-09T07:10:57.570Z,19380.97
2023-04-09T07:13:26.269Z,19399.25
2023-04-09T07:15:54.458Z,19401.28
2023-04-09T07:18:22.604Z,19411.44
2023-04-09T07:20:50.952Z,19405.34
2023-04-09T07:23:19.155Z,19431.78
2023-04-09T07:25:48.721Z,19423.66
2023-04-09T07:28:16.902Z,19466.31
2023-04-09T07:30:46.228Z,19439.91
2023-04-09T07:33:15.491Z,19454.13
2023-04-09T07:35:43.594Z,19460.22
2023-04-09T07:38:11.707Z,19492.75
2023-04-09T07:40:39.963Z,19511.03
2023-04-09T07:43:09.515Z,19476.47
2023-04-09T07:45:37.654Z,19494.78
2023-04-09T07:48:06.138Z,19525.25
2023-04-09T07:50:34.281Z,19484.59
2023-04-09T07:53:02.337Z,19539.47
2023-04-09T07:55:30.391Z,19557.78
2023-04-09T07:57:58.763Z,19537.44
2023-04-09T08:00:28.326Z,19549.63
2023-04-09T08:02:57.436Z,19537.44
2023-04-09T08:05:25.897Z,19563.88
2023-04-09T08:07:54.224Z,19561.84
2023-04-09T08:10:22.400Z,19582.16
2023-04-09T08:12:50.801Z,19586.22
2023-04-09T08:15:19.147Z,19622.81
2023-04-09T08:17:48.715Z,19626.88
2023-04-09T08:20:17.582Z,19637.03
2023-04-09T08:22:45.721Z,19675.63
2023-04-09T08:25:13.948Z,19655.31
2023-04-09T08:27:42.073Z,19667.50
2023-04-09T08:30:11.925Z,19702.06
2023-04-09T08:32:40.112Z,19695.97
2023-04-09T08:35:11.061Z,19669.53
2023-04-09T08:37:39.625Z,19698.00
2023-04-09T08:40:10.642Z,19681.75
2023-04-09T08:42:45.833Z,19685.81
2023-04-09T08:45:14.874Z,19726.44
2023-04-09T08:47:46.465Z,19750.84
2023-04-09T08:50:16.445Z,19700.03
2023-04-09T08:52:47.670Z,19732.53
2023-04-09T08:55:15.872Z,19726.44
2023-04-09T08:57:44.392Z,19758.97
2023-04-09T09:00:14.272Z,19752.88
2023-04-09T09:03:04.188Z,19789.44
2023-04-09T09:05:42.709Z,19761.00
2023-04-09T09:08:13.007Z,19761.00
2023-04-09T09:10:43.825Z,19781.31
2023-04-09T09:13:21.198Z,19777.25
2023-04-09T09:15:54.012Z,19809.78
2023-04-09T09:18:25.348Z,19797.59
2023-04-09T09:21:11.376Z,19807.75
2023-04-09T09:23:39.501Z,19809.78
2023-04-09T09:26:14.519Z,19815.88
2023-04-09T09:28:43.182Z,19785.38
2023-04-09T09:31:12.487Z,19830.09
2023-04-09T09:33:41.248Z,19838.22
2023-04-09T09:36:11.264Z,19842.28
2023-04-09T09:38:54.942Z,19899.19
2023-04-09T09:41:24.883Z,19895.13
2023-04-09T09:43:53.290Z,19826.03
2023-04-09T09:46:23.391Z,19862.63
2023-04-09T09:48:51.765Z,19919.53
2023-04-09T09:51:28.313Z,19947.97
2023-04-09T09:53:58.189Z,19903.25
2023-04-09T09:56:35.679Z,19907.31
2023-04-09T09:59:08.671Z,19911.41
2023-04-09T10:01:38.979Z,19893.09
2023-04-09T10:04:13.586Z,19897.16
2023-04-09T10:06:46.156Z,19887.00
2023-04-09T10:09:14.849Z,19950.00
2023-04-09T10:11:45.429Z,19980.50
2023-04-09T10:14:14.694Z,19976.44
2023-04-09T10:16:43.215Z,20013.00
2023-04-09T10:19:14.097Z,20006.91
2023-04-09T10:21:54.684Z,20025.22
2023-04-09T10:24:23.950Z,20041.47
2023-04-09T10:26:56.135Z,20029.28
2023-04-09T10:29:29.965Z,20047.56
2023-04-09T10:32:07.439Z,20049.59
2023-04-09T10:34:40.294Z,20041.47
2023-04-09T10:37:15.397Z,20078.06
2023-04-09T10:39:48.353Z,20061.78
2023-04-09T10:42:21.946Z,20033.34
2023-04-09T10:45:07.435Z,20100.41
2023-04-09T10:47:38.125Z,20074.00
2023-04-09T10:50:21.261Z,20122.78
2023-04-09T10:52:55.301Z,20090.25
2023-04-09T10:55:37.241Z,20102.44
2023-04-09T10:58:09.034Z,20147.16
2023-04-09T11:00:40.875Z,20122.78
2023-04-09T11:03:27.398Z,20116.66
2023-04-09T11:06:01.992Z,20149.19
2023-04-09T11:08:33.988Z,20147.16
2023-04-09T11:11:03.567Z,20159.34
2023-04-09T11:13:34.053Z,20159.34
2023-04-09T11:16:04.074Z,20171.56
2023-04-09T11:18:34.480Z,20195.94
2023-04-09T11:21:04.428Z,20228.47
2023-04-09T11:23:34.697Z,20216.25
2023-04-09T11:26:03.021Z,20232.53
2023-04-09T11:28:31.175Z,20191.88
2023-04-09T11:30:59.292Z,20214.22
2023-04-09T11:33:34.323Z,20210.16
2023-04-09T11:36:06.046Z,20193.91
2023-04-09T11:38:37.631Z,20220.34
2023-04-09T11:41:06.061Z,20195.94
2023-04-09T11:43:37.306Z,20208.13
2023-04-09T11:46:07.830Z,20216.25
2023-04-09T11:48:36.604Z,20248.78
2023-04-09T11:51:05.397Z,20260.97
2023-04-09T11:53:38.404Z,20281.31
2023-04-09T11:56:07.170Z,20303.66
2023-04-09T11:58:36.485Z,20252.84
2023-04-09T12:01:04.756Z,20258.94
2023-04-09T12:03:34.040Z,20275.22
2023-04-09T12:06:04.004Z,20277.25
2023-04-09T12:08:34.577Z,20279.28
2023-04-09T12:11:11.937Z,20260.97
2023-04-09T12:13:43.351Z,20309.75
2023-04-09T12:16:12.240Z,20303.66
2023-04-09T12:18:40.613Z,20265.03
2023-04-09T12:21:08.818Z,20319.94
2023-04-09T12:23:37.111Z,20305.69
2023-04-09T12:26:05.709Z,20289.44
2023-04-09T12:28:35.462Z,20313.84
2023-04-09T12:31:03.792Z,20293.50
2023-04-09T12:33:32.227Z,20332.13
2023-04-09T12:36:00.580Z,20350.41
2023-04-09T12:38:29.009Z,20289.44
2023-04-09T12:40:57.212Z,20338.22
2023-04-09T12:43:25.351Z,20405.31
2023-04-09T12:45:54.972Z,20407.34
2023-04-09T12:48:23.127Z,20413.44
2023-04-09T12:50:51.588Z,20330.09
2023-04-09T12:53:19.748Z,20401.22
2023-04-09T12:55:47.853Z,20309.75
2023-04-09T12:58:15.988Z,20281.31
2023-04-09T13:00:44.708Z,20313.84
2023-04-09T13:03:16.518Z,20301.63
2023-04-09T13:05:44.858Z,20228.47
2023-04-09T13:08:12.978Z,20218.31
2023-04-09T13:10:41.317Z,20246.75
2023-04-09T13:13:12.168Z,20260.97
2023-04-09T13:15:43.160Z,20269.13
2023-04-09T13:18:13.424Z,20256.91
2023-04-09T13:20:41.793Z,20287.41
2023-04-09T13:23:09.897Z,20289.44
2023-04-09T13:25:38.188Z,20348.38
2023-04-09T13:28:06.439Z,20307.72
2023-04-09T13:30:35.603Z,20346.34
2023-04-09T13:33:04.021Z,20362.63
2023-04-09T13:35:33.684Z,20309.75
2023-04-09T13:38:01.962Z,20387.00
2023-04-09T13:40:30.357Z,20393.09
2023-04-09T13:42:58.522Z,20350.41
2023-04-09T13:45:26.662Z,20387.00
2023-04-09T13:47:55.148Z,20397.16
2023-04-09T13:50:23.442Z,20395.13
2023-04-09T13:52:52.966Z,20387.00
2023-04-09T13:55:21.262Z,20417.50
2023-04-09T13:57:49.447Z,20419.53
2023-04-09T14:00:17.786Z,20439.84
2023-04-09T14:02:46.564Z,20437.81
2023-04-09T14:05:14.781Z,20421.56
2023-04-09T14:07:42.949Z,20407.34
2023-04-09T14:10:12.796Z,20435.78
2023-04-09T14:12:40.949Z,20397.16
2023-04-09T14:15:10.326Z,20415.47
2023-04-09T14:17:38.633Z,20427.66
2023-04-09T14:20:08.575Z,20468.31
2023-04-09T14:22:36.999Z,20433.75
2023-04-09T14:25:06.524Z,20393.09
2023-04-09T14:27:36.444Z,20431.72
2023-04-09T14:30:05.429Z,20393.09
2023-04-09T14:32:33.628Z,20407.34
2023-04-09T14:35:01.982Z,20409.38
2023-04-09T14:37:30.640Z,20387.00
2023-04-09T14:39:58.922Z,20378.88
2023-04-09T14:42:27.083Z,20382.94
2023-04-09T14:44:56.556Z,20433.75
2023-04-09T14:47:24.836Z,20389.03
2023-04-09T14:49:53.052Z,20380.91
2023-04-09T14:52:21.763Z,20352.44
2023-04-09T14:54:49.876Z,20334.16
2023-04-09T14:57:17.996Z,20362.63
2023-04-09T14:59:46.143Z,20326.03
2023-04-09T15:02:16.311Z,20358.56
2023-04-09T15:04:44.737Z,20309.75
2023-04-09T15:07:13.048Z,20309.75
2023-04-09T15:09:41.556Z,20354.47
2023-04-09T15:12:09.944Z,20309.75
2023-04-09T15:14:38.171Z,20313.84
2023-04-09T15:17:06.529Z,20370.75
2023-04-09T15:19:36.343Z,20391.06
2023-04-09T15:22:04.457Z,20358.56
2023-04-09T15:24:32.689Z,20370.75
2023-04-09T15:27:01.193Z,20336.19
2023-04-09T15:29:29.327Z,20352.44
2023-04-09T15:31:57.551Z,20326.03
2023-04-09T15:34:26.112Z,20285.38
2023-04-09T15:36:55.895Z,20309.75
2023-04-09T15:39:24.655Z,20346.34
2023-04-09T15:41:52.874Z,20303.66
2023-04-09T15:44:21.106Z,20291.47
2023-04-09T15:46:49.282Z,20281.31
2023-04-09T15:49:17.682Z,20289.44
2023-04-09T15:51:45.810Z,20299.59
2023-04-09T15:54:15.514Z,20285.38
2023-04-09T15:56:43.843Z,20283.34
2023-04-09T15:59:12.092Z,20281.31
2023-04-09T16:01:40.894Z,20332.13
2023-04-09T16:04:09.336Z,20301.63
2023-04-09T16:06:39.272Z,20246.75
2023-04-09T16:09:07.527Z,20285.38
2023-04-09T16:11:37.466Z,20315.88
2023-04-09T16:14:05.763Z,20301.63
2023-04-09T16:16:34.005Z,20277.25
2023-04-09T16:19:02.296Z,20277.25
2023-04-09T16:21:30.446Z,20256.91
2023-04-09T16:23:58.679Z,20319.94
2023-04-09T16:26:26.933Z,20305.69
2023-04-09T16:29:00.034Z,20252.84
2023-04-09T16:31:28.201Z,20228.47
2023-04-09T16:33:56.377Z,20232.53
2023-04-09T16:36:24.542Z,20208.13
2023-04-09T16:38:52.976Z,20214.22
2023-04-09T16:41:21.375Z,20236.59
2023-04-09T16:43:51.068Z,20191.88
2023-04-09T16:46:20.716Z,20155.28
2023-04-09T16:48:49.057Z,20163.41
2023-04-09T16:51:17.620Z,20161.38
2023-04-09T16:53:45.805Z,20141.06
2023-04-09T16:56:13.948Z,20132.94
2023-04-09T16:58:41.992Z,20126.84
2023-04-09T17:01:10.571Z,20092.28
2023-04-09T17:03:40.176Z,20102.44
2023-04-09T17:06:08.575Z,20061.78
2023-04-09T17:08:37.031Z,20061.78
2023-04-09T17:11:05.523Z,20090.25
2023-04-09T17:13:36.133Z,20106.50
2023-04-09T17:16:04.708Z,20019.13
2023-04-09T17:18:32.804Z,20051.63
2023-04-09T17:21:02.726Z,20041.47
2023-04-09T17:23:31.074Z,20008.94
2023-04-09T17:26:01.175Z,19996.75
2023-04-09T17:28:29.423Z,19964.25
2023-04-09T17:30:57.543Z,20013.00
2023-04-09T17:33:25.996Z,20002.84
2023-04-09T17:35:54.347Z,19964.25
2023-04-09T17:38:25.105Z,20004.88
2023-04-09T17:40:54.867Z,19990.66
2023-04-09T17:43:23.299Z,19962.19
2023-04-09T17:45:51.414Z,19958.13
2023-04-09T17:48:19.692Z,19954.06
2023-04-09T17:50:47.786Z,19911.41
2023-04-09T17:53:15.879Z,19915.47
2023-04-09T17:55:50.712Z,19933.75
2023-04-09T17:58:18.970Z,19903.25
2023-04-09T18:00:47.120Z,19897.16
2023-04-09T18:03:15.642Z,19874.81
2023-04-09T18:05:44.309Z,19933.75
2023-04-09T18:08:12.719Z,19891.06
2023-04-09T18:10:40.844Z,19880.91
2023-04-09T18:13:10.313Z,19874.81
2023-04-09T18:15:38.652Z,19878.88
2023-04-09T18:18:06.760Z,19834.16
2023-04-09T18:20:34.852Z,19854.50
2023-04-09T18:23:02.946Z,19828.06
2023-04-09T18:25:31.057Z,19824.00
2023-04-09T18:27:59.311Z,19830.09
2023-04-09T18:30:28.758Z,19838.22
2023-04-09T18:32:57.117Z,19846.34
2023-04-09T18:35:25.347Z,19791.47
2023-04-09T18:37:53.505Z,19801.66
2023-04-09T18:40:21.862Z,19785.38
2023-04-09T18:42:52.671Z,19791.47
2023-04-09T18:45:21.047Z,19824.00
2023-04-09T18:47:50.513Z,19842.28
2023-04-09T18:50:18.907Z,19866.69
2023-04-09T18:52:47.181Z,19828.06
2023-04-09T18:55:16.195Z,19813.84
2023-04-09T18:57:44.876Z,19809.78
2023-04-09T19:00:14.435Z,19811.81
2023-04-09T19:02:42.657Z,19771.16
2023-04-09T19:05:12.761Z,19740.69
2023-04-09T19:07:40.998Z,19767.09
2023-04-09T19:10:10.125Z,19718.31
2023-04-09T19:12:39.253Z,19744.75
2023-04-09T19:15:08.803Z,19769.13
2023-04-09T19:17:36.893Z,19793.50
2023-04-09T19:20:05.828Z,19752.88
2023-04-09T19:22:35.239Z,19761.00
2023-04-09T19:25:03.387Z,19736.59
2023-04-09T19:27:31.623Z,19734.56
2023-04-09T19:30:01.009Z,19724.41
2023-04-09T19:32:29.161Z,19722.38
2023-04-09T19:34:57.262Z,19728.47
2023-04-09T19:37:27.867Z,19736.59
2023-04-09T19:40:01.163Z,19720.34
2023-04-09T19:42:29.535Z,19702.06
2023-04-09T19:44:57.578Z,19708.16
2023-04-09T19:47:25.829Z,19695.97
2023-04-09T19:49:54.000Z,19710.19
2023-04-09T19:52:22.704Z,19700.03
2023-04-09T19:54:56.249Z,19687.84
2023-04-09T19:57:26.338Z,19675.63
2023-04-09T19:59:55.070Z,19679.72
2023-04-09T20:02:23.698Z,19661.41
2023-04-09T20:04:52.263Z,19710.19
2023-04-09T20:07:20.475Z,19655.31
2023-04-09T20:09:48.638Z,19675.63
2023-04-09T20:12:16.773Z,19651.25
2023-04-09T20:14:47.005Z,19639.06
2023-04-09T20:17:15.311Z,19657.34
2023-04-09T20:19:43.585Z,19641.09
2023-04-09T20:22:11.642Z,19590.28
2023-04-09T20:24:39.944Z,19610.59
2023-04-09T20:27:08.025Z,19637.03
2023-04-09T20:29:36.198Z,19602.47
2023-04-09T20:32:06.363Z,19600.44
2023-04-09T20:34:34.755Z,19620.78
2023-04-09T20:37:05.481Z,19592.31
2023-04-09T20:39:33.707Z,19576.06
2023-04-09T20:42:01.843Z,19553.72
2023-04-09T20:44:30.313Z,19549.63
2023-04-09T20:46:58.385Z,19547.59
2023-04-09T20:49:27.810Z,19557.78
2023-04-09T20:51:55.898Z,19555.75
2023-04-09T20:54:23.933Z,19547.59
2023-04-09T20:56:52.177Z,19537.44
2023-04-09T20:59:20.358Z,19559.81
2023-04-09T21:01:48.780Z,19574.03
2023-04-09T21:04:17.070Z,19557.78
2023-04-09T21:06:47.647Z,19553.72
2023-04-09T21:09:15.981Z,19561.84
2023-04-09T21:11:44.061Z,19547.59
2023-04-09T21:14:13.491Z,19594.34
2023-04-09T21:16:41.868Z,19565.91
2023-04-09T21:19:09.982Z,19576.06
2023-04-09T21:21:38.955Z,19549.63
2023-04-09T21:24:08.374Z,19543.53
2023-04-09T21:26:49.283Z,19561.84
2023-04-09T21:29:17.878Z,19574.03
2023-04-09T21:31:46.002Z,19506.97
2023-04-09T21:34:14.035Z,19549.63
2023-04-09T21:36:42.225Z,19502.91
2023-04-09T21:39:11.735Z,19525.25
2023-04-09T21:41:39.989Z,19504.94
2023-04-09T21:44:08.916Z,19498.84
2023-04-09T21:46:38.129Z,19529.31
2023-04-09T21:49:07.053Z,19500.88
2023-04-09T21:51:35.184Z,19498.84
2023-04-09T21:54:05.199Z,19494.78
2023-04-09T21:56:43.682Z,19490.72
2023-04-09T21:59:11.788Z,19496.81
2023-04-09T22:01:40.014Z,19466.31
2023-04-09T22:04:08.378Z,19452.09
2023-04-09T22:06:36.636Z,19472.41
2023-04-09T22:09:05.240Z,19466.31
2023-04-09T22:11:34.383Z,19468.34
2023-04-09T22:14:03.927Z,19462.25
2023-04-09T22:16:32.114Z,19458.19
2023-04-09T22:19:00.460Z,19417.56
2023-04-09T22:21:28.614Z,19452.09
2023-04-09T22:23:56.793Z,19443.97
2023-04-09T22:26:24.941Z,19439.91
2023-04-09T22:28:53.356Z,19452.09
2023-04-09T22:31:23.181Z,19466.31
2023-04-09T22:33:51.501Z,19470.38
2023-04-09T22:36:19.849Z,19472.41
2023-04-09T22:38:47.949Z,19448.03
2023-04-09T22:41:17.477Z,19466.31
2023-04-09T22:43:45.616Z,19443.97
2023-04-09T22:46:13.723Z,19419.59
2023-04-09T22:48:44.924Z,19441.94
2023-04-09T22:51:14.097Z,19435.84
2023-04-09T22:53:42.235Z,19443.97
2023-04-09T22:56:10.944Z,19454.13
2023-04-09T22:58:39.554Z,19450.06
2023-04-09T23:01:08.576Z,19439.91
2023-04-09T23:03:36.749Z,19411.44
2023-04-09T23:06:07.151Z,19423.66
2023-04-09T23:08:35.253Z,19399.25
2023-04-09T23:11:05.186Z,19429.75
2023-04-09T23:13:33.486Z,19443.97
2023-04-09T23:16:01.642Z,19454.13
2023-04-09T23:18:29.794Z,19446.00
2023-04-09T23:20:57.936Z,19415.50
2023-04-09T23:23:27.473Z,19413.47
2023-04-09T23:25:55.761Z,19417.56
2023-04-09T23:28:23.906Z,19399.25
2023-04-09T23:30:52.137Z,19401.28
2023-04-09T23:33:20.920Z,19387.06
2023-04-09T23:35:49.119Z,19415.50
2023-04-09T23:38:17.422Z,19413.47
2023-04-09T23:40:47.865Z,19354.56
2023-04-09T23:43:16.069Z,19338.28
2023-04-09T23:45:44.845Z,19352.53
2023-04-09T23:48:13.427Z,19378.94
2023-04-09T23:50:43.001Z,19383.00
2023-04-09T23:53:11.474Z,19346.44
2023-04-09T23:55:41.283Z,19344.41
2023-04-09T23:58:10.854Z,19330.16
